Peel, Arkansas
Current Conditions -  °F | °C
As of 2:55 PM on Sunday 23 Nov 2014 (Local Time) from KFLP Reporting Station
Overcast Overcast  
Wind Chill: 14°   Ceiling: 600
Heat Index: 14°   Visibility: 10mi
Dew Point: 12°   Wind: 0mph
Humidity: 88%   Direction: NA
Pressure: 29.34"   Gusts: NA
Location:  36.43°N, 92.77°W
Report Text: KFLP 232055Z AUTO 00000KT 10SM OVC006 14/12 A2934 RMK AO1 60001 57034
Loading
Personal Weather Stations






























Interactive Weather Map New forecast layout! Learn more

10-Day Weather Forecast

Advertisements
Track Severe Weather on mobile